Winter Springs, FL

8:19 AM EST on February 07, 2016 (GMT -0500)
Oak Forest WS | | Change Station
CLOSE
Current Station
Personal Weather Station
Location: Winter Springs, FL
Elevation: 40 ft
Nearby Weather Stations
Active Advisory: Lake Wind Advisory

Elev 40 ft 28.67 °N, 81.27 °W | Updated 4 minutes ago

Overcast
Overcast
45.2 °F
Feels Like 45 °F
N
3.0
Wind Variable Wind from WNW
Gusts 12.0 mph

Today
High -- | Low -- °F
--% Chance of Precip.
Yesterday
High -- | Low -- °F
Precip. -- in
Pressure 30.00 in
Visibility 10.0 miles
Clouds Overcast 900 ft
Windchill 45 °F
Dew Point 43 °F
Humidity 92%
Rainfall 0.07 in
Snow Depth Not available.
7:09 AM 6:08 PM
Waning Crescent, 2% visible
METAR KSFB 071253Z 30016KT 10SM OVC009 07/06 A3000 RMK AO2 PK WND 30027/1235 SLP157 T00720056
Pressure 30.00 in
Visibility 10.0 miles
Clouds Overcast 900 ft
Windchill 45 °F
Dew Point 43 °F
Humidity 92%
Rainfall 0.07 in
Snow Depth Not available.
7:09 AM 6:08 PM
Waning Crescent, 2% visible
METAR KSFB 071253Z 30016KT 10SM OVC009 07/06 A3000 RMK AO2 PK WND 30027/1235 SLP157 T00720056

10-Day Weather Forecast

Almanac

Astronomy

Feb. 07, 2016 Rise Set
Actual Time
Civil Twilight
Nautical Twilight
Astronomical Twilight
Moon
Length of Visible Light
Length of Day
Tomorrow will be .
, % of the Moon is Illuminated

Today's Extremes

State Highs State Lows

Community

WunderPhotos

Upload Photos

1,891,190 photos uploaded!

WunderBlog® & News

Nearby

Air Quality

  Air Quality AQ Index Pollutant
Not available.

Snow Depth

Station Depth Elevation

Earthquake Activity

City Distance Mag. Time & Date
Minimum magnitude displayed is 2.5.

Coastal Water Temperatures

Place Temperature

Stations

Nearby Weather Stations

Station Location Temp. Windchill Dew Point Humidity Wind Precip. Elev Updated Type
                   

Watches & Warnings

Lake Wind Advisory
Issued: 3:47 AM EST Feb. 7, 2016 – National Weather Service

... Lake Wind Advisory in effect until 6 PM EST this evening...

The National Weather Service in Melbourne has issued a lake Wind
Advisory... which is in effect until 6 PM EST this evening.

* Winds... northwest winds around 20 mph today with gusts up to 30
to 35 mph.

* Impacts... choppy conditions on Open Lakes and other larger
bodies of water will make operation of small boats potentially
hazardous.

Precautionary/preparedness actions...

A lake Wind Advisory indicates that winds will cause rough chop
on area lakes. Small boats will be especially prone to capsizing.



Weitlich